createdAt,value
2019-03-31T00:00:17.354Z,66.96
2019-03-31T00:01:17.396Z,66.69
2019-03-31T00:02:17.330Z,66.35
2019-03-31T00:03:17.322Z,66.35
2019-03-31T00:04:17.311Z,66.78
2019-03-31T00:05:17.298Z,66.38
2019-03-31T00:06:17.295Z,66.99
2019-03-31T00:07:17.299Z,67.40
2019-03-31T00:08:17.264Z,66.89
2019-03-31T00:09:17.263Z,67.60
2019-03-31T00:10:17.251Z,67.40
2019-03-31T00:11:17.235Z,67.30
2019-03-31T00:12:17.233Z,67.43
2019-03-31T00:13:17.220Z,67.19
2019-03-31T00:14:17.207Z,67.13
2019-03-31T00:15:17.199Z,67.84
2019-03-31T00:16:17.185Z,67.94
2019-03-31T00:17:17.185Z,67.94
2019-03-31T00:18:17.166Z,68.01
2019-03-31T00:19:17.149Z,68.05
2019-03-31T00:20:17.145Z,67.94
2019-03-31T00:21:17.134Z,68.05
2019-03-31T00:22:17.125Z,67.81
2019-03-31T00:23:17.112Z,67.60
2019-03-31T00:24:17.109Z,68.55
2019-03-31T00:25:17.098Z,68.12
2019-03-31T00:26:17.081Z,68.01
2019-03-31T00:27:17.068Z,67.60
2019-03-31T00:28:17.054Z,67.33
2019-03-31T00:29:17.081Z,67.81
2019-03-31T00:30:17.033Z,67.91
2019-03-31T00:31:22.241Z,67.50
2019-03-31T00:32:18.011Z,67.94
2019-03-31T00:33:17.006Z,67.71
2019-03-31T00:34:16.995Z,67.94
2019-03-31T00:35:16.988Z,67.84
2019-03-31T00:36:16.971Z,67.60
2019-03-31T00:37:16.958Z,67.94
2019-03-31T00:38:16.954Z,67.71
2019-03-31T00:39:16.940Z,67.81
2019-03-31T00:40:16.939Z,67.94
2019-03-31T00:41:16.926Z,67.33
2019-03-31T00:42:16.909Z,67.30
2019-03-31T00:43:16.895Z,67.74
2019-03-31T00:44:16.893Z,67.84
2019-03-31T00:45:16.879Z,68.32
2019-03-31T00:46:16.865Z,68.01
2019-03-31T00:47:16.856Z,68.52
2019-03-31T00:48:16.848Z,67.60
2019-03-31T00:49:16.846Z,68.52
2019-03-31T00:50:16.826Z,68.12
2019-03-31T00:51:16.815Z,68.63
2019-03-31T00:52:16.803Z,68.55
2019-03-31T00:53:16.795Z,68.05
2019-03-31T00:54:16.812Z,68.15
2019-03-31T00:55:16.769Z,68.12
2019-03-31T00:56:16.768Z,68.52
2019-03-31T00:57:16.751Z,67.30
2019-03-31T00:58:16.742Z,67.81
2019-03-31T00:59:16.724Z,68.32
2019-03-31T01:00:16.746Z,68.32
2019-03-31T01:01:16.708Z,68.42
2019-03-31T01:02:16.696Z,68.52
2019-03-31T01:03:16.689Z,67.81
2019-03-31T01:04:16.675Z,68.01
2019-03-31T01:05:16.670Z,68.15
2019-03-31T01:06:16.664Z,67.91
2019-03-31T01:07:16.648Z,68.22
2019-03-31T01:08:16.630Z,68.12
2019-03-31T01:09:16.626Z,68.55
2019-03-31T01:10:16.620Z,68.55
2019-03-31T01:11:16.600Z,68.55
2019-03-31T01:12:16.594Z,68.66
2019-03-31T01:13:16.578Z,68.87
2019-03-31T01:14:16.583Z,68.76
2019-03-31T01:15:16.561Z,68.97
2019-03-31T01:16:16.558Z,69.17
2019-03-31T01:17:18.871Z,68.87
2019-03-31T01:18:16.526Z,69.17
2019-03-31T01:19:16.518Z,68.87
2019-03-31T01:20:16.502Z,69.58
2019-03-31T01:21:16.506Z,69.38
2019-03-31T01:22:16.486Z,69.38
2019-03-31T01:23:16.478Z,69.27
2019-03-31T01:24:16.466Z,69.27
2019-03-31T01:25:16.460Z,69.27
2019-03-31T01:26:16.447Z,69.38
2019-03-31T01:27:16.429Z,69.10
2019-03-31T01:28:16.491Z,69.07
2019-03-31T01:29:16.448Z,69.68
2019-03-31T01:30:16.404Z,69.48
2019-03-31T01:31:16.398Z,69.71
2019-03-31T01:32:16.398Z,69.82
2019-03-31T01:33:16.372Z,69.89
2019-03-31T01:34:16.375Z,70.03
2019-03-31T01:35:16.344Z,70.33
2019-03-31T01:36:16.337Z,70.23
2019-03-31T01:37:16.322Z,70.03
2019-03-31T01:38:16.329Z,70.33
2019-03-31T01:39:16.302Z,70.43
2019-03-31T01:40:16.291Z,70.20
2019-03-31T01:41:16.279Z,70.20
2019-03-31T01:42:16.268Z,70.40
2019-03-31T01:43:16.270Z,70.40
2019-03-31T01:44:16.254Z,70.20
2019-03-31T01:45:16.247Z,70.29
2019-03-31T01:46:16.230Z,70.74
2019-03-31T01:47:16.242Z,70.64
2019-03-31T01:48:16.212Z,70.84
2019-03-31T01:49:16.199Z,70.74
2019-03-31T01:50:16.187Z,71.04
2019-03-31T01:51:16.240Z,71.45
2019-03-31T01:52:16.164Z,71.36
2019-03-31T01:53:16.184Z,71.36
2019-03-31T01:54:16.143Z,71.25
2019-03-31T01:55:16.135Z,72.28
2019-03-31T01:56:16.122Z,71.36
2019-03-31T01:57:16.111Z,71.56
2019-03-31T01:58:16.106Z,71.45
2019-03-31T01:59:16.115Z,71.77
2019-03-31T02:00:16.076Z,71.66
2019-03-31T02:01:16.069Z,71.45
2019-03-31T02:02:16.059Z,71.97
2019-03-31T02:03:16.043Z,71.66
2019-03-31T02:04:16.033Z,71.86
2019-03-31T02:05:16.029Z,71.97
2019-03-31T02:06:16.021Z,71.66
2019-03-31T02:07:16.010Z,71.77
2019-03-31T02:08:15.995Z,71.66
2019-03-31T02:09:15.982Z,71.97
2019-03-31T02:10:15.985Z,71.86
2019-03-31T02:11:15.961Z,71.97
2019-03-31T02:12:15.956Z,71.86
2019-03-31T02:13:15.953Z,72.04
2019-03-31T02:14:15.929Z,71.97
2019-03-31T02:15:15.928Z,71.97
2019-03-31T02:16:15.909Z,71.77
2019-03-31T02:17:15.908Z,72.07
2019-03-31T02:18:15.884Z,72.28
2019-03-31T02:19:15.876Z,72.38
2019-03-31T02:20:15.861Z,71.86
2019-03-31T02:21:15.868Z,71.86
2019-03-31T02:22:15.839Z,71.66
2019-03-31T02:23:15.834Z,71.97
2019-03-31T02:24:15.910Z,71.86
2019-03-31T02:25:15.812Z,72.38
2019-03-31T02:26:15.803Z,72.38
2019-03-31T02:27:15.792Z,72.28
2019-03-31T02:28:15.774Z,73.10
2019-03-31T02:29:15.768Z,72.69
2019-03-31T02:30:15.770Z,72.69
2019-03-31T02:31:15.779Z,72.58
2019-03-31T02:32:24.318Z,72.38
2019-03-31T02:33:16.720Z,72.89
2019-03-31T02:34:15.716Z,72.38
2019-03-31T02:35:15.705Z,72.65
2019-03-31T02:36:15.700Z,72.78
2019-03-31T02:37:15.693Z,72.48
2019-03-31T02:38:15.692Z,72.69
2019-03-31T02:39:15.660Z,72.38
2019-03-31T02:40:15.646Z,72.38
2019-03-31T02:41:15.642Z,72.38
2019-03-31T02:42:15.653Z,72.28
2019-03-31T02:43:15.614Z,72.48
2019-03-31T02:44:15.603Z,72.17
2019-03-31T02:45:15.598Z,72.07
2019-03-31T02:46:15.590Z,72.78
2019-03-31T02:47:15.575Z,72.89
2019-03-31T02:48:15.579Z,73.10
2019-03-31T02:49:15.550Z,72.89
2019-03-31T02:50:15.543Z,72.99
2019-03-31T02:51:15.535Z,73.10
2019-03-31T02:52:15.516Z,73.30
2019-03-31T02:53:15.516Z,73.50
2019-03-31T02:54:15.505Z,73.40
2019-03-31T02:55:15.491Z,73.30
2019-03-31T02:56:15.475Z,73.40
2019-03-31T02:57:15.470Z,73.50
2019-03-31T02:58:15.462Z,73.20
2019-03-31T02:59:15.450Z,73.30
2019-03-31T03:00:15.441Z,73.40
2019-03-31T03:01:15.425Z,73.71
2019-03-31T03:02:15.410Z,73.61
2019-03-31T03:03:15.578Z,73.50
2019-03-31T03:04:15.402Z,73.50
2019-03-31T03:05:19.663Z,73.61
2019-03-31T03:06:15.377Z,73.71
2019-03-31T03:07:15.357Z,73.30
2019-03-31T03:08:15.346Z,73.44
2019-03-31T03:09:15.352Z,73.81
2019-03-31T03:10:15.323Z,73.71
2019-03-31T03:11:15.329Z,73.71
2019-03-31T03:12:15.305Z,73.85
2019-03-31T03:13:15.327Z,73.61
2019-03-31T03:14:15.295Z,74.11
2019-03-31T03:15:15.311Z,74.11
2019-03-31T03:16:15.271Z,73.95
2019-03-31T03:17:15.251Z,74.26
2019-03-31T03:18:15.247Z,74.05
2019-03-31T03:19:15.234Z,74.15
2019-03-31T03:20:15.223Z,74.56
2019-03-31T03:21:15.226Z,74.36
2019-03-31T03:22:15.196Z,74.26
2019-03-31T03:23:15.191Z,74.26
2019-03-31T03:24:15.178Z,74.26
2019-03-31T03:25:15.173Z,74.05
2019-03-31T03:26:15.163Z,74.15
2019-03-31T03:27:15.143Z,74.15
2019-03-31T03:28:15.142Z,74.15
2019-03-31T03:29:15.127Z,74.05
2019-03-31T03:30:15.111Z,73.74
2019-03-31T03:31:16.743Z,73.98
2019-03-31T03:32:15.104Z,74.26
2019-03-31T03:33:17.666Z,73.98
2019-03-31T03:34:15.074Z,74.70
2019-03-31T03:35:15.093Z,74.39
2019-03-31T03:36:15.051Z,74.39
2019-03-31T03:37:15.049Z,74.26
2019-03-31T03:38:15.030Z,74.80
2019-03-31T03:39:15.020Z,74.60
2019-03-31T03:40:15.035Z,74.70
2019-03-31T03:41:15.010Z,74.26
2019-03-31T03:42:15.004Z,74.49
2019-03-31T03:43:14.973Z,74.80
2019-03-31T03:44:14.964Z,74.39
2019-03-31T03:45:14.949Z,75.52
2019-03-31T03:46:14.944Z,75.52
2019-03-31T03:47:14.937Z,75.52
2019-03-31T03:48:14.934Z,75.21
2019-03-31T03:49:15.083Z,75.42
2019-03-31T03:50:14.898Z,75.42
2019-03-31T03:51:14.886Z,75.21
2019-03-31T03:52:14.897Z,75.31
2019-03-31T03:53:14.876Z,75.21
2019-03-31T03:54:14.859Z,75.21
2019-03-31T03:55:14.851Z,75.21
2019-03-31T03:56:14.835Z,75.11
2019-03-31T03:57:14.841Z,75.21
2019-03-31T03:58:14.834Z,75.21
2019-03-31T03:59:14.800Z,75.01
2019-03-31T04:00:14.788Z,75.11
2019-03-31T04:01:14.779Z,75.11
2019-03-31T04:02:14.775Z,75.31
2019-03-31T04:03:29.202Z,75.45
2019-03-31T04:05:24.536Z,75.35
2019-03-31T04:06:24.517Z,75.86
2019-03-31T04:07:24.508Z,75.24
2019-03-31T04:08:24.498Z,75.96
2019-03-31T04:09:24.497Z,75.86
2019-03-31T04:10:24.471Z,75.66
2019-03-31T04:11:24.457Z,75.86
2019-03-31T04:12:24.448Z,75.66
2019-03-31T04:13:24.459Z,75.76
2019-03-31T04:14:24.491Z,75.35
2019-03-31T04:15:24.414Z,75.56
2019-03-31T04:16:24.405Z,75.90
2019-03-31T04:17:24.402Z,75.86
2019-03-31T04:18:24.381Z,76.00
2019-03-31T04:19:24.378Z,75.96
2019-03-31T04:20:24.370Z,76.00
2019-03-31T04:21:24.350Z,75.66
2019-03-31T04:22:24.340Z,76.00
2019-03-31T04:23:24.332Z,76.00
2019-03-31T04:24:24.325Z,76.07
2019-03-31T04:25:24.320Z,76.51
2019-03-31T04:26:24.338Z,76.10
2019-03-31T04:27:24.291Z,76.72
2019-03-31T04:28:24.274Z,76.31
2019-03-31T04:29:24.269Z,76.41
2019-03-31T04:30:24.272Z,76.51
2019-03-31T04:31:24.254Z,76.62
2019-03-31T04:32:24.235Z,76.62
2019-03-31T04:33:24.227Z,77.44
2019-03-31T04:34:24.222Z,77.23
2019-03-31T04:35:24.232Z,76.65
2019-03-31T04:36:24.191Z,77.58
2019-03-31T04:37:24.179Z,77.47
2019-03-31T04:38:24.181Z,77.37
2019-03-31T04:39:24.160Z,77.26
2019-03-31T04:40:24.144Z,76.96
2019-03-31T04:41:24.156Z,77.68
2019-03-31T04:42:24.127Z,77.68
2019-03-31T04:43:24.120Z,77.37
2019-03-31T04:44:24.108Z,77.58
2019-03-31T04:45:24.088Z,77.68
2019-03-31T04:46:24.084Z,77.68
2019-03-31T04:47:24.076Z,77.68
2019-03-31T04:48:24.057Z,77.68
2019-03-31T04:49:24.048Z,77.44
2019-03-31T04:50:24.041Z,77.44
2019-03-31T04:51:24.051Z,77.47
2019-03-31T04:52:24.020Z,77.37
2019-03-31T04:53:24.008Z,77.06
2019-03-31T04:54:24.002Z,77.06
2019-03-31T04:55:23.987Z,77.37
2019-03-31T04:56:23.981Z,77.06
2019-03-31T04:57:23.976Z,77.17
2019-03-31T04:58:23.952Z,77.17
2019-03-31T04:59:23.943Z,77.06
2019-03-31T05:00:23.931Z,77.47
2019-03-31T05:01:23.923Z,76.96
2019-03-31T05:02:27.045Z,77.58
2019-03-31T05:03:23.896Z,77.17
2019-03-31T05:04:23.891Z,77.58
2019-03-31T05:05:23.872Z,77.58
2019-03-31T05:06:23.865Z,77.58
2019-03-31T05:07:23.855Z,77.58
2019-03-31T05:08:23.862Z,77.58
2019-03-31T05:09:23.829Z,77.58
2019-03-31T05:10:23.821Z,77.17
2019-03-31T05:11:23.811Z,77.37
2019-03-31T05:12:23.798Z,77.13
2019-03-31T05:13:23.801Z,76.96
2019-03-31T05:14:23.779Z,77.03
2019-03-31T05:15:23.767Z,77.26
2019-03-31T05:16:23.755Z,77.44
2019-03-31T05:17:23.745Z,77.58
2019-03-31T05:18:23.743Z,77.06
2019-03-31T05:19:23.735Z,77.68
2019-03-31T05:20:23.720Z,77.68
2019-03-31T05:21:23.703Z,77.98
2019-03-31T05:22:23.691Z,77.47
2019-03-31T05:23:23.678Z,77.68
2019-03-31T05:24:23.675Z,77.88
2019-03-31T05:25:23.666Z,77.74
2019-03-31T05:26:23.647Z,77.33
2019-03-31T05:27:23.638Z,77.95
2019-03-31T05:28:23.630Z,77.84
2019-03-31T05:29:23.656Z,77.44
2019-03-31T05:30:23.610Z,77.64
2019-03-31T05:31:23.603Z,77.44
2019-03-31T05:32:23.592Z,77.29
2019-03-31T05:33:23.575Z,77.09
2019-03-31T05:34:23.578Z,76.89
2019-03-31T05:35:26.837Z,77.20
2019-03-31T05:36:23.550Z,77.29
2019-03-31T05:37:23.535Z,76.68
2019-03-31T05:38:23.521Z,76.48
2019-03-31T05:39:23.512Z,76.65
2019-03-31T05:40:23.495Z,76.54
2019-03-31T05:41:23.489Z,76.14
2019-03-31T05:42:23.480Z,75.82
2019-03-31T05:43:23.502Z,76.03
2019-03-31T05:44:23.463Z,76.14
2019-03-31T05:45:23.484Z,75.52
2019-03-31T05:46:23.435Z,75.73
2019-03-31T05:47:23.424Z,75.73
2019-03-31T05:48:23.410Z,75.82
2019-03-31T05:49:23.401Z,75.73
2019-03-31T05:50:23.386Z,75.42
2019-03-31T05:51:23.387Z,75.82
2019-03-31T05:52:23.366Z,75.62
2019-03-31T05:53:23.353Z,75.73
2019-03-31T05:54:23.357Z,75.62
2019-03-31T05:55:23.332Z,75.62
2019-03-31T05:56:23.329Z,75.62
2019-03-31T05:57:23.315Z,75.48
2019-03-31T05:58:23.311Z,75.79
2019-03-31T05:59:23.319Z,75.48
2019-03-31T06:00:23.282Z,74.97
2019-03-31T06:01:23.298Z,75.18
2019-03-31T06:02:23.264Z,75.18
2019-03-31T06:03:23.252Z,75.18
2019-03-31T06:04:33.145Z,75.59
2019-03-31T06:05:24.257Z,74.46
2019-03-31T06:06:23.217Z,74.46
2019-03-31T06:07:23.206Z,74.26
2019-03-31T06:08:23.195Z,74.32
2019-03-31T06:09:23.187Z,74.53
2019-03-31T06:10:23.169Z,74.63
2019-03-31T06:11:23.173Z,74.22
2019-03-31T06:12:23.154Z,74.02
2019-03-31T06:13:23.140Z,73.91
2019-03-31T06:14:23.156Z,73.81
2019-03-31T06:15:23.130Z,74.22
2019-03-31T06:16:23.106Z,74.22
2019-03-31T06:17:23.091Z,73.81
2019-03-31T06:18:23.080Z,74.22
2019-03-31T06:19:23.075Z,74.11
2019-03-31T06:20:23.081Z,74.22
2019-03-31T06:21:23.054Z,74.11
2019-03-31T06:22:23.051Z,74.36
2019-03-31T06:23:23.031Z,73.81
2019-03-31T06:24:23.013Z,74.26
2019-03-31T06:25:23.007Z,73.54
2019-03-31T06:26:23.013Z,73.54
2019-03-31T06:27:22.993Z,73.74
2019-03-31T06:28:22.969Z,73.33
2019-03-31T06:29:22.965Z,73.61
2019-03-31T06:30:23.009Z,73.13
2019-03-31T06:31:22.942Z,72.82
2019-03-31T06:32:22.925Z,72.82
2019-03-31T06:33:22.922Z,72.52
2019-03-31T06:34:22.904Z,72.92
2019-03-31T06:35:22.895Z,72.11
2019-03-31T06:36:22.922Z,72.17
2019-03-31T06:37:22.871Z,71.86
2019-03-31T06:38:22.868Z,71.97
2019-03-31T06:39:22.861Z,71.66
2019-03-31T06:40:22.838Z,71.66
2019-03-31T06:41:22.829Z,71.42
2019-03-31T06:42:22.830Z,71.22
2019-03-31T06:43:22.806Z,70.81
2019-03-31T06:44:22.806Z,72.14
2019-03-31T06:45:22.785Z,71.70
2019-03-31T06:46:22.773Z,70.78
2019-03-31T06:47:22.775Z,70.37
2019-03-31T06:48:22.763Z,69.75
2019-03-31T06:49:22.750Z,68.80
2019-03-31T06:50:22.737Z,68.66
2019-03-31T06:51:22.717Z,68.46
2019-03-31T06:52:22.718Z,68.57
2019-03-31T06:53:22.702Z,67.61
2019-03-31T06:54:22.702Z,66.97
2019-03-31T06:55:22.685Z,67.07
2019-03-31T06:56:22.663Z,66.42
2019-03-31T06:57:22.653Z,66.53
2019-03-31T06:58:22.643Z,66.22
2019-03-31T06:59:22.737Z,65.07
2019-03-31T07:00:22.637Z,64.87
2019-03-31T07:01:22.614Z,63.95
2019-03-31T07:02:22.604Z,63.92
2019-03-31T07:03:22.592Z,63.75
2019-03-31T07:04:22.580Z,63.41
2019-03-31T07:05:22.580Z,62.70
2019-03-31T07:06:22.565Z,62.16
2019-03-31T07:07:23.987Z,62.05
2019-03-31T07:08:22.539Z,62.23
2019-03-31T07:09:22.527Z,61.52
2019-03-31T07:10:22.556Z,61.93
2019-03-31T07:11:22.504Z,61.38
2019-03-31T07:12:22.495Z,61.08
2019-03-31T07:13:22.497Z,60.06
2019-03-31T07:14:22.468Z,60.16
2019-03-31T07:15:22.465Z,59.83
2019-03-31T07:16:22.463Z,59.91
2019-03-31T07:17:22.442Z,58.96
2019-03-31T07:18:22.442Z,59.06
2019-03-31T07:19:22.418Z,58.83
2019-03-31T07:20:22.417Z,58.94
2019-03-31T07:21:22.406Z,57.38
2019-03-31T07:22:24.364Z,56.95
2019-03-31T07:23:22.375Z,56.04
2019-03-31T07:24:22.367Z,56.21
2019-03-31T07:25:22.389Z,55.60
2019-03-31T07:26:22.337Z,55.30
2019-03-31T07:27:22.326Z,55.80
2019-03-31T07:28:22.319Z,55.37
2019-03-31T07:29:22.323Z,55.55
2019-03-31T07:30:22.301Z,54.84
2019-03-31T07:31:22.811Z,54.71
2019-03-31T07:32:22.272Z,55.32
2019-03-31T07:33:22.260Z,54.59
2019-03-31T07:34:22.255Z,53.47
2019-03-31T07:35:22.240Z,54.18
2019-03-31T07:36:22.258Z,54.26
2019-03-31T07:37:22.227Z,54.51
2019-03-31T07:38:22.477Z,53.70
2019-03-31T07:39:22.378Z,52.33
2019-03-31T07:40:22.349Z,52.64
2019-03-31T07:41:22.250Z,53.27
2019-03-31T07:42:22.221Z,51.83
2019-03-31T07:43:22.155Z,52.06
2019-03-31T07:44:22.166Z,51.86
2019-03-31T07:45:22.129Z,51.95
2019-03-31T07:46:22.123Z,52.26
2019-03-31T07:47:22.119Z,51.93
2019-03-31T07:48:22.125Z,51.73
2019-03-31T07:49:22.091Z,51.53
2019-03-31T07:50:22.139Z,51.37
2019-03-31T07:51:22.068Z,49.63
2019-03-31T07:52:22.064Z,49.22
2019-03-31T07:53:22.048Z,50.44
2019-03-31T07:54:22.041Z,50.37
2019-03-31T07:55:22.022Z,49.93
2019-03-31T07:56:22.009Z,50.67
2019-03-31T07:57:21.998Z,49.48
2019-03-31T07:58:22.045Z,50.99
2019-03-31T07:59:22.027Z,48.95
2019-03-31T08:00:21.971Z,49.38
2019-03-31T08:01:21.964Z,50.16
2019-03-31T08:02:21.951Z,50.16
2019-03-31T08:03:21.956Z,49.45
2019-03-31T08:04:21.921Z,49.13
2019-03-31T08:05:32.502Z,49.98
2019-03-31T08:06:22.901Z,50.21
2019-03-31T08:07:21.894Z,50.63
2019-03-31T08:08:21.877Z,51.25
2019-03-31T08:09:21.886Z,52.11
2019-03-31T08:10:21.860Z,52.00
2019-03-31T08:11:21.857Z,53.09
2019-03-31T08:12:21.835Z,54.33
2019-03-31T08:13:21.823Z,53.93
2019-03-31T08:14:21.829Z,54.05
2019-03-31T08:15:21.821Z,53.55
2019-03-31T08:16:21.791Z,53.78
2019-03-31T08:17:21.791Z,54.11
2019-03-31T08:18:21.771Z,54.74
2019-03-31T08:19:21.760Z,55.15
2019-03-31T08:20:21.760Z,55.88
2019-03-31T08:21:21.736Z,55.78
2019-03-31T08:22:21.727Z,55.88
2019-03-31T08:23:21.719Z,56.39
2019-03-31T08:24:21.705Z,55.99
2019-03-31T08:25:21.739Z,56.09
2019-03-31T08:26:21.683Z,55.53
2019-03-31T08:27:21.670Z,55.86
2019-03-31T08:28:21.659Z,55.78
2019-03-31T08:29:21.651Z,56.29
2019-03-31T08:30:21.644Z,56.21
2019-03-31T08:31:21.640Z,57.13
2019-03-31T08:32:21.620Z,57.03
2019-03-31T08:33:21.611Z,57.67
2019-03-31T08:34:21.594Z,57.06
2019-03-31T08:35:21.592Z,57.18
2019-03-31T08:36:21.593Z,58.00
2019-03-31T08:37:21.567Z,57.59
2019-03-31T08:38:24.333Z,58.00
2019-03-31T08:39:21.538Z,57.49
2019-03-31T08:40:21.534Z,57.31
2019-03-31T08:41:21.536Z,57.62
2019-03-31T08:42:21.504Z,57.39
2019-03-31T08:43:21.505Z,56.65
2019-03-31T08:44:21.490Z,55.83
2019-03-31T08:45:21.477Z,55.71
2019-03-31T08:46:21.467Z,56.21
2019-03-31T08:47:21.461Z,55.60
2019-03-31T08:48:21.441Z,56.42
2019-03-31T08:49:21.433Z,56.73
2019-03-31T08:50:21.421Z,57.13
2019-03-31T08:51:21.411Z,56.12
2019-03-31T08:52:21.410Z,56.65
2019-03-31T08:53:21.387Z,56.34
2019-03-31T08:54:21.381Z,56.75
2019-03-31T08:55:21.368Z,56.75
2019-03-31T08:56:21.357Z,56.65
2019-03-31T08:57:21.349Z,56.85
2019-03-31T08:58:21.327Z,57.67
2019-03-31T08:59:21.327Z,57.06
2019-03-31T09:00:21.341Z,57.06
2019-03-31T09:01:21.322Z,56.65
2019-03-31T09:02:21.292Z,56.34
2019-03-31T09:03:21.275Z,56.77
2019-03-31T09:04:21.264Z,56.77
2019-03-31T09:05:21.258Z,56.98
2019-03-31T09:06:21.253Z,58.33
2019-03-31T09:07:21.230Z,57.42
2019-03-31T09:08:21.232Z,57.44
2019-03-31T09:09:21.210Z,57.65
2019-03-31T09:10:21.202Z,57.65
2019-03-31T09:11:21.197Z,58.26
2019-03-31T09:12:21.190Z,58.36
2019-03-31T09:13:21.197Z,58.76
2019-03-31T09:14:21.162Z,58.36
2019-03-31T09:15:21.153Z,58.67
2019-03-31T09:16:21.134Z,58.84
2019-03-31T09:17:21.136Z,58.33
2019-03-31T09:18:21.116Z,58.03
2019-03-31T09:19:21.119Z,58.20
2019-03-31T09:20:21.131Z,58.20
2019-03-31T09:21:21.084Z,58.28
2019-03-31T09:22:21.069Z,58.10
2019-03-31T09:23:21.061Z,58.00
2019-03-31T09:24:21.046Z,57.29
2019-03-31T09:25:21.040Z,56.47
2019-03-31T09:26:21.031Z,56.68
2019-03-31T09:27:21.016Z,56.55
2019-03-31T09:28:21.001Z,56.68
2019-03-31T09:29:20.993Z,57.08
2019-03-31T09:30:20.989Z,56.68
2019-03-31T09:31:20.992Z,56.07
2019-03-31T09:32:20.959Z,56.77
2019-03-31T09:33:20.951Z,56.88
2019-03-31T09:34:20.940Z,56.68
2019-03-31T09:35:20.926Z,56.47
2019-03-31T09:36:20.912Z,57.79
2019-03-31T09:37:20.911Z,58.10
2019-03-31T09:38:20.891Z,57.90
2019-03-31T09:39:20.887Z,57.39
2019-03-31T09:40:20.878Z,57.65
2019-03-31T09:41:20.865Z,59.07
2019-03-31T09:42:20.861Z,58.46
2019-03-31T09:43:20.839Z,58.26
2019-03-31T09:44:20.825Z,58.87
2019-03-31T09:45:20.829Z,58.87
2019-03-31T09:46:20.826Z,59.07
2019-03-31T09:47:20.803Z,58.67
2019-03-31T09:48:20.782Z,59.17
2019-03-31T09:49:20.767Z,59.41
2019-03-31T09:50:20.763Z,59.00
2019-03-31T09:51:20.768Z,59.71
2019-03-31T09:52:20.749Z,60.02
2019-03-31T09:53:20.731Z,60.45
2019-03-31T09:54:20.712Z,60.14
2019-03-31T09:55:23.109Z,60.99
2019-03-31T09:56:20.701Z,62.14
2019-03-31T09:57:20.725Z,62.14
2019-03-31T09:58:20.678Z,62.45
2019-03-31T09:59:20.659Z,62.24
2019-03-31T10:00:20.648Z,62.27
2019-03-31T10:01:20.637Z,62.78
2019-03-31T10:02:20.630Z,62.99
2019-03-31T10:03:20.634Z,62.68
2019-03-31T10:04:28.325Z,63.16
2019-03-31T10:05:20.605Z,62.78
2019-03-31T10:06:30.083Z,62.37
2019-03-31T10:07:23.763Z,62.76
2019-03-31T10:08:22.259Z,62.48
2019-03-31T10:09:20.556Z,62.65
2019-03-31T10:10:20.544Z,62.68
2019-03-31T10:11:20.603Z,62.65
2019-03-31T10:12:20.523Z,61.83
2019-03-31T10:13:20.520Z,62.45
2019-03-31T10:14:20.495Z,62.65
2019-03-31T10:15:20.492Z,62.65
2019-03-31T10:16:20.478Z,62.55
2019-03-31T10:17:20.462Z,62.55
2019-03-31T10:18:20.495Z,62.35
2019-03-31T10:19:20.440Z,62.35
2019-03-31T10:20:20.445Z,62.21
2019-03-31T10:21:20.423Z,62.42
2019-03-31T10:22:20.418Z,61.80
2019-03-31T10:23:20.409Z,60.38
2019-03-31T10:24:20.396Z,59.74
2019-03-31T10:25:20.381Z,60.45
2019-03-31T10:26:30.990Z,59.91
2019-03-31T10:27:21.354Z,59.71
2019-03-31T10:28:20.351Z,59.10
2019-03-31T10:29:20.347Z,59.28
2019-03-31T10:30:20.402Z,59.17
2019-03-31T10:31:20.319Z,59.28
2019-03-31T10:32:20.306Z,58.76
2019-03-31T10:33:20.289Z,59.07
2019-03-31T10:34:20.337Z,57.65
2019-03-31T10:35:20.266Z,58.05
2019-03-31T10:36:20.261Z,57.85
2019-03-31T10:37:20.253Z,57.11
2019-03-31T10:38:20.236Z,57.01
2019-03-31T10:39:20.227Z,56.81
2019-03-31T10:40:20.227Z,57.92
2019-03-31T10:41:20.206Z,57.92
2019-03-31T10:42:20.211Z,58.13
2019-03-31T10:43:20.194Z,57.21
2019-03-31T10:44:20.212Z,58.84
2019-03-31T10:45:20.158Z,57.92
2019-03-31T10:46:20.151Z,55.68
2019-03-31T10:47:20.140Z,56.29
2019-03-31T10:48:21.406Z,56.60
2019-03-31T10:49:20.189Z,56.60
2019-03-31T10:50:20.115Z,56.12
2019-03-31T10:51:20.092Z,57.04
2019-03-31T10:52:20.086Z,56.22
2019-03-31T10:53:20.795Z,56.12
2019-03-31T10:54:20.056Z,56.50
2019-03-31T10:55:20.077Z,57.24
2019-03-31T10:56:20.039Z,57.34
2019-03-31T10:57:20.033Z,57.42
2019-03-31T10:58:20.012Z,58.13
2019-03-31T10:59:20.014Z,58.23
2019-03-31T11:00:20.006Z,58.03
2019-03-31T11:01:19.994Z,58.03
2019-03-31T11:02:19.968Z,56.20
2019-03-31T11:03:19.961Z,59.25
2019-03-31T11:04:19.952Z,56.20
2019-03-31T11:05:19.942Z,56.09
2019-03-31T11:06:20.037Z,57.49
2019-03-31T11:07:20.040Z,59.01
2019-03-31T11:08:19.910Z,56.45
2019-03-31T11:09:19.899Z,55.94
2019-03-31T11:10:19.893Z,54.39
2019-03-31T11:11:19.902Z,54.87
2019-03-31T11:12:19.913Z,53.24
2019-03-31T11:13:19.860Z,51.04
2019-03-31T11:14:19.848Z,50.23
2019-03-31T11:15:19.829Z,49.27
2019-03-31T11:16:19.830Z,46.88
2019-03-31T11:17:19.823Z,46.51
2019-03-31T11:18:19.864Z,45.44
2019-03-31T11:19:19.795Z,43.48
2019-03-31T11:20:19.805Z,42.64
2019-03-31T11:21:19.848Z,41.71
2019-03-31T11:22:19.757Z,40.77
2019-03-31T11:23:19.751Z,41.93
2019-03-31T11:24:19.757Z,41.39
2019-03-31T11:25:21.227Z,40.55
2019-03-31T11:26:19.712Z,40.58
2019-03-31T11:27:19.714Z,42.21
2019-03-31T11:28:19.693Z,41.29
2019-03-31T11:29:19.700Z,41.91
2019-03-31T11:30:19.683Z,40.42
2019-03-31T11:31:19.733Z,41.59
2019-03-31T11:32:19.679Z,41.93
2019-03-31T11:33:19.630Z,42.55
2019-03-31T11:34:19.876Z,41.89
2019-03-31T11:35:19.611Z,44.07
2019-03-31T11:36:19.623Z,44.07
2019-03-31T11:37:19.609Z,44.48
2019-03-31T11:38:19.603Z,47.03
2019-03-31T11:39:19.574Z,44.13
2019-03-31T11:40:19.653Z,44.54
2019-03-31T11:41:19.553Z,45.55
2019-03-31T11:42:19.536Z,45.75
2019-03-31T11:43:19.548Z,45.75
2019-03-31T11:44:19.556Z,48.08
2019-03-31T11:45:19.532Z,45.96
2019-03-31T11:46:19.540Z,44.64
2019-03-31T11:47:19.477Z,46.06
2019-03-31T11:48:19.473Z,45.96
2019-03-31T11:49:19.491Z,45.96
2019-03-31T11:50:19.451Z,48.97
2019-03-31T11:51:19.505Z,45.71
2019-03-31T11:52:19.425Z,44.70
2019-03-31T11:53:19.447Z,42.19
2019-03-31T11:54:19.403Z,43.93
2019-03-31T11:55:19.402Z,43.95
2019-03-31T11:56:19.385Z,43.95
2019-03-31T11:57:19.384Z,44.89
2019-03-31T11:58:19.366Z,47.92
2019-03-31T11:59:20.998Z,48.03
2019-03-31T12:00:19.355Z,48.03
2019-03-31T12:01:19.419Z,47.34
2019-03-31T12:02:26.852Z,47.95
2019-03-31T12:03:20.471Z,48.86
2019-03-31T12:04:19.311Z,49.06
2019-03-31T12:05:19.392Z,48.46
2019-03-31T12:06:19.271Z,48.99
2019-03-31T12:07:27.921Z,42.52
2019-03-31T12:08:20.253Z,41.05
2019-03-31T12:09:19.282Z,39.70
2019-03-31T12:10:20.099Z,38.48
2019-03-31T12:11:19.248Z,37.16
2019-03-31T12:12:19.209Z,36.49
2019-03-31T12:13:19.214Z,36.17
2019-03-31T12:14:19.192Z,36.49
2019-03-31T12:15:19.187Z,37.90
2019-03-31T12:16:19.250Z,37.21
2019-03-31T12:17:19.151Z,36.24
2019-03-31T12:18:19.140Z,35.58
2019-03-31T12:19:19.150Z,35.63
2019-03-31T12:20:19.117Z,34.80
2019-03-31T12:21:19.151Z,33.87
2019-03-31T12:22:19.099Z,33.87
2019-03-31T12:23:19.097Z,32.09
2019-03-31T12:24:19.081Z,32.27
2019-03-31T12:25:20.056Z,30.84
2019-03-31T12:26:19.061Z,30.02
2019-03-31T12:27:19.087Z,29.62
2019-03-31T12:28:19.038Z,29.52
2019-03-31T12:29:19.022Z,29.55
2019-03-31T12:30:19.016Z,30.14
2019-03-31T12:31:18.998Z,29.82
2019-03-31T12:32:19.025Z,30.54
2019-03-31T12:33:18.992Z,28.94
2019-03-31T12:34:18.972Z,29.84
2019-03-31T12:35:18.958Z,30.62
2019-03-31T12:36:18.956Z,29.11
2019-03-31T12:37:19.005Z,28.52
2019-03-31T12:38:19.002Z,27.81
2019-03-31T12:39:18.937Z,28.00
2019-03-31T12:40:18.908Z,27.88
2019-03-31T12:41:18.901Z,27.58
2019-03-31T12:42:18.890Z,26.78
2019-03-31T12:43:18.933Z,27.59
2019-03-31T12:44:18.875Z,27.29
2019-03-31T12:45:18.868Z,27.12
2019-03-31T12:46:18.892Z,27.94
2019-03-31T12:47:18.843Z,28.32
2019-03-31T12:48:18.836Z,27.94
2019-03-31T12:49:18.840Z,28.75
2019-03-31T12:50:18.806Z,29.36
2019-03-31T12:51:18.793Z,29.18
2019-03-31T12:52:18.808Z,30.02
2019-03-31T12:53:18.791Z,30.31